createdAt,value
2019-01-10T00:01:31.877Z,7.47
2019-01-10T00:04:01.543Z,8.80
2019-01-10T00:06:30.926Z,11.03
2019-01-10T00:09:00.245Z,6.62
2019-01-10T00:11:29.571Z,11.22
2019-01-10T00:13:58.892Z,10.58
2019-01-10T00:16:28.174Z,9.85
2019-01-10T00:18:57.917Z,9.15
2019-01-10T00:21:27.203Z,9.23
2019-01-10T00:23:56.513Z,6.37
2019-01-10T00:26:25.840Z,10.80
2019-01-10T00:28:55.302Z,11.45
2019-01-10T00:31:24.657Z,6.80
2019-01-10T00:33:54.003Z,11.08
2019-01-10T00:36:23.375Z,9.53
2019-01-10T00:38:52.651Z,9.88
2019-01-10T00:41:21.955Z,7.87
2019-01-10T00:43:51.299Z,9.18
2019-01-10T00:46:20.604Z,9.03
2019-01-10T00:48:49.889Z,9.40
2019-01-10T00:51:19.190Z,8.28
2019-01-10T00:53:48.470Z,9.95
2019-01-10T00:56:17.862Z,10.93
2019-01-10T00:58:47.168Z,7.67
2019-01-10T01:01:16.455Z,8.95
2019-01-10T01:03:45.749Z,9.75
2019-01-10T01:06:15.736Z,8.63
2019-01-10T01:08:45.175Z,9.53
2019-01-10T01:11:14.687Z,10.78
2019-01-10T01:13:43.975Z,12.20
2019-01-10T01:16:13.272Z,9.88
2019-01-10T01:18:42.565Z,12.93
2019-01-10T01:21:12.371Z,8.48
2019-01-10T01:23:41.679Z,10.03
2019-01-10T01:26:11.272Z,9.15
2019-01-10T01:28:40.580Z,8.93
2019-01-10T01:31:09.963Z,9.95
2019-01-10T01:33:39.240Z,7.62
2019-01-10T01:36:08.552Z,8.38
2019-01-10T01:38:37.941Z,8.83
2019-01-10T01:41:07.221Z,8.95
2019-01-10T01:43:36.528Z,9.33
2019-01-10T01:46:07.787Z,7.90
2019-01-10T01:48:37.002Z,12.05
2019-01-10T01:51:06.308Z,10.43
2019-01-10T01:53:35.836Z,8.85
2019-01-10T01:56:07.288Z,8.20
2019-01-10T01:58:38.112Z,9.55
2019-01-10T02:01:10.634Z,9.08
2019-01-10T02:03:39.940Z,7.30
2019-01-10T02:06:09.296Z,9.73
2019-01-10T02:08:38.604Z,7.95
2019-01-10T02:11:09.923Z,6.03
2019-01-10T02:13:40.544Z,9.38
2019-01-10T02:16:11.208Z,8.18
2019-01-10T02:18:42.015Z,7.45
2019-01-10T02:21:12.320Z,8.25
2019-01-10T02:23:42.773Z,9.45
2019-01-10T02:26:13.431Z,7.37
2019-01-10T02:28:43.851Z,5.90
2019-01-10T02:31:14.571Z,7.12
2019-01-10T02:33:45.416Z,10.08
2019-01-10T02:36:15.737Z,16.40
2019-01-10T02:38:46.080Z,5.92
2019-01-10T02:41:16.872Z,6.53
2019-01-10T02:43:47.420Z,8.50
2019-01-10T02:46:18.241Z,11.63
2019-01-10T02:48:48.512Z,9.28
2019-01-10T02:51:19.011Z,7.50
2019-01-10T02:53:49.293Z,6.75
2019-01-10T02:56:19.855Z,11.05
2019-01-10T02:58:50.604Z,8.05
2019-01-10T03:01:20.872Z,7.15
2019-01-10T03:03:51.345Z,7.90
2019-01-10T03:06:22.043Z,9.85
2019-01-10T03:08:52.424Z,6.60
2019-01-10T03:11:22.879Z,10.93
2019-01-10T03:13:52.934Z,10.30
2019-01-10T03:16:23.929Z,8.60
2019-01-10T03:18:54.134Z,7.00
2019-01-10T03:21:24.564Z,10.72
2019-01-10T03:23:56.243Z,12.37
2019-01-10T03:26:28.827Z,8.50
2019-01-10T03:28:58.698Z,11.83
2019-01-10T03:31:29.370Z,11.50
2019-01-10T03:34:00.148Z,9.58
2019-01-10T03:36:30.851Z,8.10
2019-01-10T03:39:01.328Z,11.85
2019-01-10T03:41:31.953Z,12.05
2019-01-10T03:44:02.677Z,9.48
2019-01-10T03:46:33.087Z,10.55
2019-01-10T03:49:03.707Z,10.53
2019-01-10T03:51:34.381Z,15.10
2019-01-10T03:54:04.961Z,10.60
2019-01-10T03:56:35.631Z,9.78
2019-01-10T03:59:06.852Z,15.90
2019-01-10T04:01:38.337Z,10.28
2019-01-10T04:04:09.151Z,11.63
2019-01-10T04:06:40.068Z,13.98
2019-01-10T04:09:09.479Z,12.93
2019-01-10T04:11:38.797Z,11.18
2019-01-10T04:14:09.504Z,9.50
2019-01-10T04:16:39.826Z,9.15
2019-01-10T04:19:10.278Z,12.15
2019-01-10T04:21:40.815Z,9.85
2019-01-10T04:24:11.249Z,12.70
2019-01-10T04:26:41.569Z,9.25
2019-01-10T04:29:12.255Z,11.97
2019-01-10T04:31:42.308Z,10.30
2019-01-10T04:34:11.628Z,9.50
2019-01-10T04:36:40.918Z,10.08
2019-01-10T04:39:10.233Z,12.33
2019-01-10T04:41:39.524Z,11.83
2019-01-10T04:44:08.854Z,10.78
2019-01-10T04:46:38.170Z,12.23
2019-01-10T04:49:07.495Z,12.55
2019-01-10T04:51:36.783Z,10.55
2019-01-10T04:54:06.243Z,10.93
2019-01-10T04:56:35.562Z,11.97
2019-01-10T04:59:05.145Z,10.70
2019-01-10T05:01:34.433Z,12.93
2019-01-10T05:04:04.088Z,10.72
2019-01-10T05:06:33.415Z,8.63
2019-01-10T05:09:02.779Z,10.38
2019-01-10T05:11:32.115Z,9.03
2019-01-10T05:14:01.385Z,12.53
2019-01-10T05:16:30.705Z,9.48
2019-01-10T05:19:00.000Z,11.93
2019-01-10T05:21:29.390Z,21.87
2019-01-10T05:23:58.716Z,8.68
2019-01-10T05:26:28.211Z,8.83
2019-01-10T05:28:57.520Z,11.43
2019-01-10T05:31:26.979Z,11.25
2019-01-10T05:33:56.301Z,10.53
2019-01-10T05:36:25.622Z,10.40
2019-01-10T05:38:55.144Z,10.40
2019-01-10T05:41:24.462Z,9.70
2019-01-10T05:43:53.753Z,8.65
2019-01-10T05:46:23.066Z,10.35
2019-01-10T05:48:52.395Z,9.18
2019-01-10T05:51:21.763Z,7.83
2019-01-10T05:53:51.076Z,7.33
2019-01-10T05:56:20.355Z,9.68
2019-01-10T05:58:49.667Z,9.85
2019-01-10T06:01:18.990Z,22.27
2019-01-10T06:03:53.138Z,13.32
2019-01-10T06:06:19.365Z,11.00
2019-01-10T06:08:48.698Z,11.00
2019-01-10T06:11:17.978Z,8.85
2019-01-10T06:13:47.302Z,12.53
2019-01-10T06:16:16.590Z,8.90
2019-01-10T06:18:45.981Z,12.37
2019-01-10T06:21:15.263Z,9.33
2019-01-10T06:23:44.585Z,10.28
2019-01-10T06:26:13.904Z,10.60
2019-01-10T06:28:45.301Z,13.88
2019-01-10T06:31:14.205Z,9.78
2019-01-10T06:33:43.528Z,11.48
2019-01-10T06:36:12.854Z,10.45
2019-01-10T06:38:42.168Z,13.20
2019-01-10T06:41:11.971Z,11.73
2019-01-10T06:43:41.257Z,13.32
2019-01-10T06:46:10.572Z,14.10
2019-01-10T06:48:39.885Z,12.73
2019-01-10T06:51:09.291Z,12.20
2019-01-10T06:53:38.591Z,10.80
2019-01-10T06:56:08.024Z,45.43
2019-01-10T06:58:37.359Z,10.48
2019-01-10T07:01:06.772Z,21.40
2019-01-10T07:03:36.063Z,15.90
2019-01-10T07:06:05.445Z,13.70
2019-01-10T07:08:34.763Z,11.45
2019-01-10T07:11:04.142Z,11.78
2019-01-10T07:13:33.825Z,14.23
2019-01-10T07:16:03.160Z,12.58
2019-01-10T07:18:32.701Z,11.80
2019-01-10T07:21:02.213Z,12.65
2019-01-10T07:23:31.492Z,13.22
2019-01-10T07:26:00.910Z,12.25
2019-01-10T07:28:30.382Z,14.83
2019-01-10T07:31:00.152Z,17.45
2019-01-10T07:33:29.465Z,18.20
2019-01-10T07:35:59.126Z,11.90
2019-01-10T07:38:28.861Z,19.67
2019-01-10T07:40:58.242Z,30.92
2019-01-10T07:43:27.617Z,18.10
2019-01-10T07:46:00.158Z,13.75
2019-01-10T07:48:29.490Z,14.70
2019-01-10T07:50:58.778Z,13.98
2019-01-10T07:53:28.177Z,13.25
2019-01-10T07:55:57.451Z,11.75
2019-01-10T07:58:26.786Z,12.25
2019-01-10T08:00:56.104Z,16.12
2019-01-10T08:03:25.404Z,14.20
2019-01-10T08:05:54.704Z,17.60
2019-01-10T08:08:23.996Z,14.80
2019-01-10T08:10:53.307Z,19.20
2019-01-10T08:13:22.598Z,14.70
2019-01-10T08:15:51.920Z,12.98
2019-01-10T08:18:21.235Z,14.90
2019-01-10T08:20:50.925Z,12.85
2019-01-10T08:23:20.234Z,13.75
2019-01-10T08:25:49.528Z,12.23
2019-01-10T08:28:18.868Z,12.50
2019-01-10T08:30:48.306Z,15.32
2019-01-10T08:33:18.002Z,13.68
2019-01-10T08:35:47.658Z,13.32
2019-01-10T08:38:17.007Z,13.55
2019-01-10T08:40:46.303Z,13.95
2019-01-10T08:43:15.633Z,15.80
2019-01-10T08:45:44.956Z,12.90
2019-01-10T08:48:14.936Z,11.38
2019-01-10T08:50:44.448Z,12.13
2019-01-10T08:53:13.840Z,13.15
2019-01-10T08:55:43.123Z,13.55
2019-01-10T08:58:12.448Z,15.08
2019-01-10T09:00:42.140Z,10.65
2019-01-10T09:03:11.454Z,13.85
2019-01-10T09:05:40.767Z,14.00
2019-01-10T09:08:10.126Z,13.35
2019-01-10T09:10:40.563Z,13.00
2019-01-10T09:13:10.389Z,13.68
2019-01-10T09:15:39.707Z,12.37
2019-01-10T09:18:09.445Z,11.50
2019-01-10T09:20:38.771Z,11.48
2019-01-10T09:23:08.063Z,12.65
2019-01-10T09:25:37.386Z,16.12
2019-01-10T09:28:06.686Z,15.35
2019-01-10T09:30:36.009Z,14.75
2019-01-10T09:33:06.444Z,14.18
2019-01-10T09:35:35.772Z,12.73
2019-01-10T09:38:05.332Z,12.70
2019-01-10T09:40:34.661Z,15.20
2019-01-10T09:43:04.141Z,16.05
2019-01-10T09:45:33.608Z,15.70
2019-01-10T09:48:03.207Z,13.88
2019-01-10T09:50:32.524Z,15.75
2019-01-10T09:53:02.010Z,15.35
2019-01-10T09:55:31.375Z,12.80
2019-01-10T09:58:00.665Z,11.68
2019-01-10T10:00:30.657Z,13.48
2019-01-10T10:03:00.340Z,14.65
2019-01-10T10:05:29.971Z,15.10
2019-01-10T10:07:59.292Z,15.70
2019-01-10T10:10:29.023Z,15.20
2019-01-10T10:12:58.358Z,14.70
2019-01-10T10:15:27.656Z,13.88
2019-01-10T10:17:56.988Z,15.38
2019-01-10T10:20:26.847Z,14.53
2019-01-10T10:22:56.158Z,15.43
2019-01-10T10:25:26.140Z,15.43
2019-01-10T10:27:55.842Z,16.03
2019-01-10T10:30:25.808Z,16.70
2019-01-10T10:32:55.202Z,15.83
2019-01-10T10:35:25.152Z,15.75
2019-01-10T10:37:54.527Z,17.70
2019-01-10T10:40:23.952Z,14.77
2019-01-10T10:42:53.624Z,14.25
2019-01-10T10:45:23.351Z,12.27
2019-01-10T10:47:52.737Z,16.03
2019-01-10T10:50:25.039Z,13.77
2019-01-10T10:52:54.340Z,17.60
2019-01-10T10:55:23.722Z,13.33
2019-01-10T10:57:53.995Z,15.43
2019-01-10T11:00:28.576Z,13.27
2019-01-10T11:02:58.416Z,12.40
2019-01-10T11:05:27.983Z,12.37
2019-01-10T11:07:57.360Z,11.23
2019-01-10T11:10:26.768Z,13.47
2019-01-10T11:12:56.194Z,13.03
2019-01-10T11:15:25.783Z,12.77
2019-01-10T11:17:55.456Z,18.77
2019-01-10T11:20:25.012Z,11.67
2019-01-10T11:22:54.605Z,15.27
2019-01-10T11:25:24.788Z,10.53
2019-01-10T11:27:54.818Z,12.70
2019-01-10T11:30:24.282Z,11.93
2019-01-10T11:32:53.995Z,14.53
2019-01-10T11:35:23.866Z,12.90
2019-01-10T11:37:53.267Z,12.50
2019-01-10T11:40:23.370Z,14.23
2019-01-10T11:42:52.791Z,12.33
2019-01-10T11:45:23.642Z,10.77
2019-01-10T11:47:52.946Z,15.67
2019-01-10T11:50:22.399Z,10.50
2019-01-10T11:52:51.755Z,11.87
2019-01-10T11:55:21.593Z,14.83
2019-01-10T11:57:51.151Z,13.07
2019-01-10T12:00:23.479Z,11.13
2019-01-10T12:02:53.130Z,10.73
2019-01-10T12:05:22.515Z,9.83
2019-01-10T12:07:51.882Z,11.43
2019-01-10T12:10:21.547Z,12.60
2019-01-10T12:12:51.009Z,9.37
2019-01-10T12:15:20.481Z,13.07
2019-01-10T12:17:49.782Z,11.60
2019-01-10T12:20:20.103Z,11.23
2019-01-10T12:22:50.092Z,9.97
2019-01-10T12:25:20.180Z,10.93
2019-01-10T12:27:49.824Z,10.63
2019-01-10T12:30:24.202Z,10.17
2019-01-10T12:32:53.889Z,8.73
2019-01-10T12:35:24.833Z,7.83
2019-01-10T12:37:54.507Z,8.73
2019-01-10T12:40:23.821Z,9.90
2019-01-10T12:42:53.194Z,11.23
2019-01-10T12:45:22.614Z,8.20
2019-01-10T12:47:52.194Z,9.60
2019-01-10T12:50:29.256Z,13.97
2019-01-10T12:52:58.560Z,10.83
2019-01-10T12:55:28.358Z,11.47
2019-01-10T12:57:57.751Z,8.37
2019-01-10T13:00:27.105Z,9.90
2019-01-10T13:02:57.244Z,9.20
2019-01-10T13:05:26.858Z,10.77
2019-01-10T13:08:03.339Z,8.33
2019-01-10T13:10:27.195Z,11.10
2019-01-10T13:12:56.504Z,12.17
2019-01-10T13:15:26.544Z,11.60
2019-01-10T13:17:55.836Z,12.47
2019-01-10T13:20:25.574Z,15.03
2019-01-10T13:22:54.956Z,16.30
2019-01-10T13:25:24.247Z,12.50
2019-01-10T13:27:53.834Z,17.83
2019-01-10T13:30:24.690Z,16.37
2019-01-10T13:32:54.724Z,16.23
2019-01-10T13:35:24.483Z,14.60
2019-01-10T13:37:54.110Z,14.77
2019-01-10T13:40:24.344Z,14.17
2019-01-10T13:42:54.111Z,14.23
2019-01-10T13:45:23.991Z,14.70
2019-01-10T13:47:54.070Z,16.10
2019-01-10T13:50:25.695Z,16.60
2019-01-10T13:52:55.609Z,17.40
2019-01-10T13:55:25.315Z,14.83
2019-01-10T13:57:55.151Z,15.37
2019-01-10T14:00:32.168Z,15.57
2019-01-10T14:03:00.230Z,15.67
2019-01-10T14:05:30.401Z,13.93
2019-01-10T14:08:00.184Z,13.20
2019-01-10T14:10:30.276Z,11.63
2019-01-10T14:12:59.743Z,12.55
2019-01-10T14:15:30.856Z,11.30
2019-01-10T14:18:00.257Z,12.87
2019-01-10T14:20:29.625Z,13.50
2019-01-10T14:22:59.223Z,16.32
2019-01-10T14:25:29.052Z,13.43
2019-01-10T14:27:59.848Z,14.20
2019-01-10T14:30:32.353Z,14.25
2019-01-10T14:33:02.579Z,13.07
2019-01-10T14:35:32.230Z,12.47
2019-01-10T14:38:01.625Z,15.38
2019-01-10T14:40:32.082Z,13.28
2019-01-10T14:43:01.405Z,14.13
2019-01-10T14:45:31.248Z,17.32
2019-01-10T14:48:02.074Z,17.30
2019-01-10T14:50:31.570Z,15.10
2019-01-10T14:53:01.196Z,12.98
2019-01-10T14:55:30.571Z,16.52
2019-01-10T14:57:59.981Z,17.12
2019-01-10T15:00:29.281Z,17.02
2019-01-10T15:02:58.750Z,20.68
2019-01-10T15:05:34.151Z,19.73
2019-01-10T15:07:59.148Z,20.05
2019-01-10T15:10:28.441Z,19.17
2019-01-10T15:12:57.773Z,17.57
2019-01-10T15:15:27.181Z,15.53
2019-01-10T15:17:56.546Z,16.25
2019-01-10T15:20:28.434Z,18.62
2019-01-10T15:22:58.405Z,15.68
2019-01-10T15:25:27.796Z,18.42
2019-01-10T15:27:57.255Z,20.00
2019-01-10T15:30:27.621Z,18.95
2019-01-10T15:32:57.079Z,20.82
2019-01-10T15:35:26.667Z,22.25
2019-01-10T15:37:56.055Z,17.60
2019-01-10T15:40:30.411Z,20.43
2019-01-10T15:42:59.802Z,17.77
2019-01-10T15:45:29.413Z,19.55
2019-01-10T15:47:58.782Z,26.65
2019-01-10T15:50:28.119Z,30.50
2019-01-10T15:52:57.482Z,21.75
2019-01-10T15:55:26.955Z,35.50
2019-01-10T15:57:56.280Z,27.82
2019-01-10T16:00:25.660Z,23.87
2019-01-10T16:02:55.035Z,25.27
2019-01-10T16:05:24.377Z,30.35
2019-01-10T16:07:53.756Z,24.10
2019-01-10T16:10:23.131Z,30.40
2019-01-10T16:12:52.543Z,27.35
2019-01-10T16:15:25.265Z,33.75
2019-01-10T16:17:54.853Z,35.10
2019-01-10T16:20:24.399Z,29.05
2019-01-10T16:22:54.270Z,30.45
2019-01-10T16:25:23.613Z,25.20
2019-01-10T16:27:52.925Z,25.35
2019-01-10T16:30:25.312Z,22.05
2019-01-10T16:32:54.728Z,19.92
2019-01-10T16:35:24.118Z,19.15
2019-01-10T16:37:53.520Z,24.98
2019-01-10T16:40:23.670Z,22.15
2019-01-10T16:42:53.430Z,43.80
2019-01-10T16:45:28.261Z,23.15
2019-01-10T16:47:57.576Z,25.43
2019-01-10T16:50:26.911Z,23.22
2019-01-10T16:52:56.276Z,23.45
2019-01-10T16:55:25.677Z,21.27
2019-01-10T16:57:54.971Z,22.50
2019-01-10T17:00:30.185Z,21.57
2019-01-10T17:02:59.820Z,22.40
2019-01-10T17:05:29.219Z,26.77
2019-01-10T17:07:59.210Z,24.15
2019-01-10T17:10:28.528Z,22.00
2019-01-10T17:12:57.906Z,27.50
2019-01-10T17:15:27.312Z,21.57
2019-01-10T17:17:56.611Z,18.55
2019-01-10T17:20:26.776Z,19.98
2019-01-10T17:22:56.071Z,22.85
2019-01-10T17:25:25.474Z,24.70
2019-01-10T17:27:54.876Z,18.70
2019-01-10T17:30:26.412Z,20.90
2019-01-10T17:32:55.822Z,19.57
2019-01-10T17:35:30.381Z,20.45
2019-01-10T17:37:59.985Z,20.55
2019-01-10T17:40:29.555Z,20.27
2019-01-10T17:42:59.345Z,18.92
2019-01-10T17:45:31.328Z,21.35
2019-01-10T17:48:00.652Z,19.00
2019-01-10T17:50:30.114Z,21.17
2019-01-10T17:52:59.491Z,17.95
2019-01-10T17:55:28.808Z,17.87
2019-01-10T17:57:58.200Z,20.47
2019-01-10T18:00:29.909Z,18.50
2019-01-10T18:02:59.243Z,16.80
2019-01-10T18:05:28.775Z,17.60
2019-01-10T18:07:58.188Z,17.95
2019-01-10T18:10:28.025Z,18.62
2019-01-10T18:12:57.419Z,20.12
2019-01-10T18:15:27.345Z,20.52
2019-01-10T18:17:56.709Z,17.40
2019-01-10T18:20:33.234Z,19.57
2019-01-10T18:23:02.649Z,18.95
2019-01-10T18:25:32.122Z,20.08
2019-01-10T18:28:01.661Z,20.53
2019-01-10T18:30:32.103Z,18.87
2019-01-10T18:33:01.502Z,20.17
2019-01-10T18:35:31.063Z,17.57
2019-01-10T18:38:00.465Z,20.25
2019-01-10T18:40:29.938Z,24.72
2019-01-10T18:42:59.251Z,20.52
2019-01-10T18:45:31.031Z,23.15
2019-01-10T18:48:00.425Z,25.60
2019-01-10T18:50:29.868Z,20.57
2019-01-10T18:52:59.469Z,18.45
2019-01-10T18:55:28.994Z,18.52
2019-01-10T18:57:58.851Z,24.70
2019-01-10T19:00:29.330Z,18.62
2019-01-10T19:02:59.588Z,21.93
2019-01-10T19:05:29.006Z,21.37
2019-01-10T19:07:58.659Z,26.45
2019-01-10T19:10:28.063Z,22.90
2019-01-10T19:12:57.394Z,25.40
2019-01-10T19:15:26.835Z,33.28
2019-01-10T19:17:56.158Z,25.17
2019-01-10T19:20:27.407Z,23.10
2019-01-10T19:22:57.803Z,21.73
2019-01-10T19:25:27.143Z,27.80
2019-01-10T19:27:56.496Z,20.65
2019-01-10T19:30:28.478Z,21.87
2019-01-10T19:32:58.048Z,18.65
2019-01-10T19:35:27.379Z,20.57
2019-01-10T19:37:56.755Z,17.40
2019-01-10T19:40:26.102Z,20.10
2019-01-10T19:42:55.592Z,20.52
2019-01-10T19:45:25.127Z,16.10
2019-01-10T19:47:54.455Z,16.97
2019-01-10T19:50:25.503Z,17.57
2019-01-10T19:52:55.454Z,17.20
2019-01-10T19:55:24.753Z,15.53
2019-01-10T19:57:54.079Z,18.20
2019-01-10T20:00:29.744Z,18.10
2019-01-10T20:02:59.351Z,16.52
2019-01-10T20:05:28.808Z,19.42
2019-01-10T20:07:58.381Z,13.68
2019-01-10T20:10:27.843Z,15.13
2019-01-10T20:12:57.224Z,17.20
2019-01-10T20:15:26.623Z,17.82
2019-01-10T20:17:57.134Z,14.73
2019-01-10T20:20:29.394Z,16.00
2019-01-10T20:22:58.974Z,16.87
2019-01-10T20:25:28.369Z,18.25
2019-01-10T20:27:57.700Z,14.83
2019-01-10T20:30:26.996Z,18.07
2019-01-10T20:32:56.366Z,19.35
2019-01-10T20:35:25.757Z,15.43
2019-01-10T20:37:55.041Z,17.15
2019-01-10T20:40:24.513Z,15.40
2019-01-10T20:42:53.817Z,20.08
2019-01-10T20:45:23.144Z,14.28
2019-01-10T20:47:52.478Z,20.33
2019-01-10T20:50:21.942Z,21.27
2019-01-10T20:52:51.275Z,19.23
2019-01-10T20:55:20.766Z,17.55
2019-01-10T20:57:50.164Z,16.12
2019-01-10T21:00:22.112Z,19.33
2019-01-10T21:02:52.035Z,15.55
2019-01-10T21:05:21.465Z,15.58
2019-01-10T21:07:50.926Z,19.92
2019-01-10T21:10:22.210Z,16.87
2019-01-10T21:12:52.098Z,18.77
2019-01-10T21:15:24.045Z,15.35
2019-01-10T21:17:53.505Z,15.70
2019-01-10T21:20:22.899Z,63.35
2019-01-10T21:22:52.655Z,55.73
2019-01-10T21:25:22.523Z,38.63
2019-01-10T21:27:51.900Z,19.65
2019-01-10T21:30:23.570Z,17.92
2019-01-10T21:32:52.979Z,17.33
2019-01-10T21:35:22.428Z,19.30
2019-01-10T21:37:51.878Z,19.52
2019-01-10T21:40:23.741Z,16.93
2019-01-10T21:42:53.973Z,19.15
2019-01-10T21:45:23.839Z,20.50
2019-01-10T21:47:53.154Z,19.67
2019-01-10T21:50:25.109Z,19.40
2019-01-10T21:52:54.793Z,21.45
2019-01-10T21:55:24.153Z,18.02
2019-01-10T21:57:53.631Z,18.20
2019-01-10T22:00:28.764Z,17.98
2019-01-10T22:02:59.035Z,16.33
2019-01-10T22:05:28.372Z,16.62
2019-01-10T22:07:57.699Z,17.35
2019-01-10T22:10:28.470Z,16.95
2019-01-10T22:12:57.896Z,18.03
2019-01-10T22:15:27.153Z,18.60
2019-01-10T22:17:56.495Z,17.60
2019-01-10T22:20:26.701Z,14.10
2019-01-10T22:22:56.064Z,17.55
2019-01-10T22:25:25.425Z,21.17
2019-01-10T22:27:55.544Z,17.87
2019-01-10T22:30:24.861Z,17.07
2019-01-10T22:32:54.287Z,17.57
2019-01-10T22:35:23.821Z,17.40
2019-01-10T22:37:53.472Z,19.00
2019-01-10T22:40:23.848Z,19.62
2019-01-10T22:42:53.508Z,20.62
2019-01-10T22:45:23.874Z,16.23
2019-01-10T22:47:53.954Z,18.45
2019-01-10T22:50:23.920Z,21.48
2019-01-10T22:52:53.712Z,18.45
2019-01-10T22:55:23.025Z,19.45
2019-01-10T22:57:52.671Z,20.55
2019-01-10T23:01:01.133Z,17.33
2019-01-10T23:03:34.063Z,17.40
2019-01-10T23:06:03.466Z,14.25
2019-01-10T23:08:35.956Z,19.10
2019-01-10T23:11:05.837Z,22.58
2019-01-10T23:13:35.143Z,24.43
2019-01-10T23:16:04.884Z,20.17
2019-01-10T23:18:38.393Z,21.82
2019-01-10T23:21:07.859Z,19.95
2019-01-10T23:23:37.173Z,17.45
2019-01-10T23:26:06.487Z,15.88
2019-01-10T23:28:41.128Z,17.98
2019-01-10T23:31:13.505Z,16.35
2019-01-10T23:33:42.844Z,21.05
2019-01-10T23:36:12.149Z,20.77
2019-01-10T23:38:41.802Z,20.23
2019-01-10T23:41:11.110Z,19.17
2019-01-10T23:43:40.427Z,17.12
2019-01-10T23:46:10.597Z,17.10
2019-01-10T23:48:39.917Z,38.10
2019-01-10T23:51:09.224Z,24.30
2019-01-10T23:53:38.548Z,18.82
2019-01-10T23:56:07.883Z,19.98
2019-01-10T23:58:37.216Z,17.37
